createdAt,value
2022-09-13T00:01:43.933Z,15.80
2022-09-13T00:04:32.639Z,15.80
2022-09-13T00:07:22.847Z,15.80
2022-09-13T00:10:12.420Z,15.80
2022-09-13T00:13:01.776Z,15.80
2022-09-13T00:15:51.623Z,15.70
2022-09-13T00:18:42.321Z,15.60
2022-09-13T00:21:38.171Z,15.50
2022-09-13T00:24:28.245Z,15.50
2022-09-13T00:27:18.590Z,15.50
2022-09-13T00:30:20.151Z,15.40
2022-09-13T00:33:09.006Z,15.40
2022-09-13T00:36:00.068Z,15.40
2022-09-13T00:38:49.986Z,15.40
2022-09-13T00:41:40.383Z,15.30
2022-09-13T00:44:58.791Z,15.20
2022-09-13T00:48:01.375Z,15.20
2022-09-13T00:50:54.102Z,15.10
2022-09-13T00:53:47.122Z,15.20
2022-09-13T00:56:57.199Z,15.20
2022-09-13T01:00:09.270Z,15.10
2022-09-13T01:02:59.787Z,15.10
2022-09-13T01:06:12.048Z,15.10
2022-09-13T01:09:04.343Z,15.00
2022-09-13T01:12:08.797Z,15.00
2022-09-13T01:15:00.265Z,15.10
2022-09-13T01:17:50.776Z,15.10
2022-09-13T01:21:16.689Z,15.10
2022-09-13T01:24:53.489Z,15.10
2022-09-13T01:28:13.811Z,15.00
2022-09-13T01:31:13.753Z,15.00
2022-09-13T01:34:25.430Z,15.00
2022-09-13T01:37:42.770Z,14.90
2022-09-13T01:40:53.836Z,15.00
2022-09-13T01:43:54.122Z,15.10
2022-09-13T01:47:01.341Z,15.10
2022-09-13T01:53:32.318Z,15.20
2022-09-13T01:56:27.904Z,15.10
2022-09-13T01:59:39.334Z,15.10
2022-09-13T02:05:45.694Z,15.20
2022-09-13T02:08:53.794Z,15.20
2022-09-13T02:11:45.956Z,15.10
2022-09-13T02:18:00.193Z,15.20
2022-09-13T02:21:00.391Z,15.20
2022-09-13T02:23:53.950Z,15.10
2022-09-13T02:26:56.007Z,15.10
2022-09-13T02:29:47.857Z,15.10
2022-09-13T02:33:02.375Z,15.10
2022-09-13T02:36:10.933Z,15.10
2022-09-13T02:39:02.275Z,15.10
2022-09-13T02:42:14.249Z,15.10
2022-09-13T02:45:03.594Z,15.20
2022-09-13T02:48:02.079Z,15.10
2022-09-13T02:51:06.912Z,15.20
2022-09-13T02:54:12.525Z,15.40
2022-09-13T02:57:06.365Z,15.50
2022-09-13T03:00:00.856Z,15.60
2022-09-13T03:03:01.253Z,15.60
2022-09-13T03:05:49.975Z,15.70
2022-09-13T03:12:22.756Z,15.90
2022-09-13T03:15:23.021Z,16.00
2022-09-13T03:18:40.183Z,16.00
2022-09-13T03:21:52.281Z,15.90
2022-09-13T03:25:03.923Z,15.70
2022-09-13T03:34:33.815Z,15.60
2022-09-13T03:37:37.708Z,15.70
2022-09-13T03:40:56.277Z,15.70
2022-09-13T03:43:50.566Z,15.80
2022-09-13T03:46:43.828Z,15.80
2022-09-13T03:49:40.638Z,15.80
2022-09-13T03:52:29.653Z,15.70
2022-09-13T03:55:22.394Z,15.70
2022-09-13T03:58:17.637Z,15.70
2022-09-13T04:01:06.446Z,15.70
2022-09-13T04:03:57.046Z,15.70
2022-09-13T04:07:03.626Z,15.70
2022-09-13T04:09:52.442Z,15.80
2022-09-13T04:12:42.205Z,15.80
2022-09-13T04:15:42.088Z,15.90
2022-09-13T04:18:31.082Z,15.90
2022-09-13T04:21:19.942Z,15.80
2022-09-13T04:24:08.751Z,15.90
2022-09-13T04:27:14.075Z,15.90
2022-09-13T04:30:02.843Z,15.90
2022-09-13T04:33:12.303Z,15.80
2022-09-13T04:36:01.484Z,15.80
2022-09-13T04:38:57.529Z,15.80
2022-09-13T04:41:54.844Z,15.80
2022-09-13T04:44:44.957Z,15.80
2022-09-13T04:47:53.984Z,15.70
2022-09-13T04:50:44.995Z,15.80
2022-09-13T04:53:53.990Z,15.80
2022-09-13T04:56:42.666Z,15.90
2022-09-13T05:03:13.735Z,15.90
2022-09-13T05:06:08.799Z,15.90
2022-09-13T05:09:15.607Z,15.90
2022-09-13T05:12:04.808Z,15.80
2022-09-13T05:15:13.666Z,15.80
2022-09-13T05:18:02.335Z,15.80
2022-09-13T05:23:59.124Z,15.90
2022-09-13T05:26:48.165Z,15.90
2022-09-13T05:29:55.026Z,16.00
2022-09-13T05:32:43.693Z,16.00
2022-09-13T05:35:52.130Z,16.00
2022-09-13T05:38:40.785Z,15.90
2022-09-13T05:41:30.893Z,15.90
2022-09-13T05:44:34.747Z,15.80
2022-09-13T05:47:23.432Z,15.90
2022-09-13T05:53:25.255Z,16.00
2022-09-13T05:56:16.831Z,16.00
2022-09-13T05:59:07.114Z,16.10
2022-09-13T06:01:55.803Z,16.20
2022-09-13T06:04:44.509Z,16.10
2022-09-13T06:07:33.143Z,16.20
2022-09-13T06:10:21.825Z,16.30
2022-09-13T06:13:17.453Z,16.30
2022-09-13T06:16:09.561Z,16.30
2022-09-13T06:18:59.455Z,16.40
2022-09-13T06:21:57.210Z,16.40
2022-09-13T06:24:45.902Z,16.40
2022-09-13T06:27:34.546Z,16.40
2022-09-13T06:30:23.217Z,16.40
2022-09-13T06:33:20.222Z,16.40
2022-09-13T06:36:11.813Z,16.40
2022-09-13T06:39:01.942Z,16.40
2022-09-13T06:42:08.851Z,16.40
2022-09-13T06:44:57.536Z,16.40
2022-09-13T06:54:06.129Z,16.40
2022-09-13T06:56:54.892Z,16.30
2022-09-13T06:59:43.615Z,16.20
2022-09-13T07:02:32.882Z,16.10
2022-09-13T07:05:23.453Z,16.20
2022-09-13T07:08:13.182Z,16.30
2022-09-13T07:11:01.895Z,16.40
2022-09-13T07:13:50.753Z,16.50
2022-09-13T07:16:40.630Z,16.50
2022-09-13T07:19:31.514Z,16.60
2022-09-13T07:22:27.069Z,16.90
2022-09-13T07:25:15.892Z,17.10
2022-09-13T07:28:04.854Z,17.20
2022-09-13T07:30:53.535Z,17.20
2022-09-13T07:33:44.418Z,17.30
2022-09-13T07:36:35.259Z,17.40
2022-09-13T07:39:25.344Z,17.40
2022-09-13T07:42:13.974Z,17.40
2022-09-13T07:45:02.670Z,17.40
2022-09-13T07:47:53.794Z,17.50
2022-09-13T07:50:42.430Z,17.60
2022-09-13T07:53:32.030Z,17.70
2022-09-13T07:56:24.483Z,17.70
2022-09-13T07:59:15.707Z,17.70
2022-09-13T08:02:04.480Z,17.80
2022-09-13T08:04:53.289Z,17.90
2022-09-13T08:07:41.892Z,18.10
2022-09-13T08:10:48.815Z,18.20
2022-09-13T08:13:39.481Z,18.20
2022-09-13T08:41:51.079Z,17.40
2022-09-13T10:17:44.074Z,18.20
2022-09-13T10:21:01.150Z,18.30
2022-09-13T10:23:52.493Z,18.50
2022-09-13T10:26:50.336Z,18.40
2022-09-13T10:29:39.163Z,18.60
2022-09-13T10:32:29.274Z,18.80
2022-09-13T10:35:20.299Z,18.80
2022-09-13T10:38:32.340Z,18.80
2022-09-13T10:41:27.762Z,18.90
2022-09-13T10:44:27.740Z,19.00
2022-09-13T10:47:21.340Z,19.10
2022-09-13T10:50:20.372Z,19.20
2022-09-13T10:53:34.418Z,19.30
2022-09-13T10:56:24.615Z,19.30
2022-09-13T10:59:20.955Z,19.30
2022-09-13T11:02:49.821Z,19.30
2022-09-13T11:05:44.518Z,19.20
2022-09-13T11:08:44.935Z,19.20
2022-09-13T11:11:40.174Z,19.20
2022-09-13T11:14:53.029Z,19.40
2022-09-13T11:17:59.385Z,19.40
2022-09-13T11:20:58.037Z,19.50
2022-09-13T11:24:12.941Z,19.50
2022-09-13T11:27:06.205Z,19.60
2022-09-13T11:30:30.402Z,19.70
2022-09-13T11:33:33.612Z,19.80
2022-09-13T11:36:43.291Z,20.00
2022-09-13T11:39:39.834Z,20.20
2022-09-13T11:42:42.563Z,20.40
2022-09-13T11:45:36.358Z,20.50
2022-09-13T11:49:06.709Z,20.60
2022-09-13T11:52:04.441Z,20.70
2022-09-13T11:55:12.753Z,20.60
2022-09-13T11:58:04.345Z,20.50
2022-09-13T12:00:58.505Z,20.50
2022-09-13T12:04:01.117Z,20.50
2022-09-13T12:06:55.342Z,20.60
2022-09-13T12:10:03.676Z,20.80
2022-09-13T12:12:56.787Z,20.90
2022-09-13T12:15:49.052Z,20.80
2022-09-13T12:18:42.096Z,20.80
2022-09-13T12:21:37.214Z,20.80
2022-09-13T12:24:34.470Z,20.70
2022-09-13T12:27:28.275Z,20.60
2022-09-13T12:30:20.582Z,20.50
2022-09-13T12:33:09.715Z,20.60
2022-09-13T12:36:25.650Z,20.60
2022-09-13T12:39:49.210Z,20.60
2022-09-13T12:43:03.780Z,20.80
2022-09-13T12:46:28.011Z,21.00
2022-09-13T12:49:38.944Z,21.00
2022-09-13T12:52:35.394Z,21.00
2022-09-13T12:55:47.243Z,21.10
2022-09-13T12:59:28.523Z,21.10
2022-09-13T13:02:31.850Z,21.00
2022-09-13T13:05:27.024Z,20.90
2022-09-13T13:08:34.504Z,20.90
2022-09-13T13:11:27.625Z,21.10
2022-09-13T13:14:44.385Z,21.20
2022-09-13T13:17:43.894Z,21.10
2022-09-13T13:21:09.053Z,21.20
2022-09-13T13:24:34.597Z,21.20
2022-09-13T13:27:47.566Z,21.10
2022-09-13T13:30:56.478Z,21.10
2022-09-13T13:33:51.066Z,21.10
2022-09-13T13:36:48.029Z,21.10
2022-09-13T13:39:42.066Z,21.10
2022-09-13T13:42:35.457Z,21.00
2022-09-13T13:45:27.041Z,20.90
2022-09-13T13:48:16.714Z,21.00
2022-09-13T13:51:18.666Z,21.00
2022-09-13T13:54:32.134Z,20.90
2022-09-13T13:57:25.620Z,20.70
2022-09-13T14:00:17.119Z,20.40
2022-09-13T14:03:18.050Z,20.20
2022-09-13T14:06:15.339Z,19.90
2022-09-13T14:09:28.204Z,19.70
2022-09-13T14:12:33.214Z,19.60
2022-09-13T14:15:38.896Z,19.60
2022-09-13T14:19:00.479Z,19.60
2022-09-13T14:22:07.703Z,19.50
2022-09-13T14:24:59.205Z,19.50
2022-09-13T14:27:49.910Z,19.60
2022-09-13T14:30:39.996Z,19.70
2022-09-13T14:33:32.305Z,19.80
2022-09-13T14:36:23.479Z,19.80
2022-09-13T14:39:12.134Z,19.80
2022-09-13T14:42:04.542Z,19.80
2022-09-13T14:44:53.379Z,19.70
2022-09-13T14:47:49.615Z,19.70
2022-09-13T14:50:41.856Z,19.70
2022-09-13T14:53:32.682Z,19.70
2022-09-13T14:56:30.009Z,19.60
2022-09-13T14:59:28.102Z,19.60
2022-09-13T15:02:21.032Z,19.60
2022-09-13T15:05:15.638Z,19.60
2022-09-13T15:08:37.702Z,19.70
2022-09-13T15:11:33.134Z,19.70
2022-09-13T15:14:28.838Z,19.70
2022-09-13T15:17:17.512Z,19.70
2022-09-13T15:20:07.490Z,19.70
2022-09-13T15:22:56.554Z,19.70
2022-09-13T15:25:51.660Z,19.70
2022-09-13T15:28:51.117Z,19.70
2022-09-13T15:31:41.349Z,19.70
2022-09-13T15:34:30.429Z,19.70
2022-09-13T15:37:20.772Z,19.70
2022-09-13T15:40:21.419Z,19.70
2022-09-13T15:43:10.159Z,19.60
2022-09-13T15:46:01.638Z,19.60
2022-09-13T15:48:54.631Z,19.60
2022-09-13T15:51:44.485Z,19.60
2022-09-13T15:54:34.998Z,19.50
2022-09-13T15:57:25.582Z,19.50
2022-09-13T16:00:19.111Z,19.40
2022-09-13T16:03:07.747Z,19.30
2022-09-13T16:05:58.554Z,19.20
2022-09-13T16:08:47.272Z,19.20
2022-09-13T16:11:35.917Z,19.10
2022-09-13T16:14:24.635Z,19.10
2022-09-13T16:17:15.138Z,19.00
2022-09-13T16:20:04.636Z,19.00
2022-09-13T16:22:54.637Z,19.00
2022-09-13T16:25:44.168Z,19.00
2022-09-13T16:28:32.836Z,18.90
2022-09-13T16:31:21.690Z,18.80
2022-09-13T16:34:10.496Z,18.80
2022-09-13T16:36:59.214Z,18.70
2022-09-13T16:39:49.578Z,18.70
2022-09-13T16:42:39.241Z,18.70
2022-09-13T16:45:27.909Z,18.60
2022-09-13T16:48:16.538Z,18.60
2022-09-13T16:51:06.151Z,18.60
2022-09-13T16:53:55.380Z,18.60
2022-09-13T16:56:45.472Z,18.60
2022-09-13T16:59:34.867Z,18.60
2022-09-13T17:02:23.635Z,18.50
2022-09-13T17:05:12.864Z,18.40
2022-09-13T17:08:01.571Z,18.50
2022-09-13T17:10:50.239Z,18.40
2022-09-13T17:13:52.444Z,18.40
2022-09-13T17:16:44.038Z,18.40
2022-09-13T17:19:34.744Z,18.30
2022-09-13T17:22:23.704Z,18.20
2022-09-13T17:25:12.368Z,18.10
2022-09-13T17:28:01.008Z,18.00
2022-09-13T17:30:51.105Z,18.00
2022-09-13T17:33:39.796Z,18.00
2022-09-13T17:36:28.518Z,17.90
2022-09-13T17:39:17.342Z,17.80
2022-09-13T17:42:06.396Z,17.70
2022-09-13T17:44:55.062Z,17.70
2022-09-13T17:47:45.605Z,17.60
2022-09-13T17:50:34.290Z,17.60
2022-09-13T17:53:22.954Z,17.60
2022-09-13T17:56:11.991Z,17.50
2022-09-13T17:59:10.034Z,17.60
2022-09-13T18:02:01.142Z,17.60
2022-09-13T18:04:52.285Z,17.50
2022-09-13T18:07:41.010Z,17.50
2022-09-13T18:10:53.106Z,17.40
2022-09-13T18:13:39.004Z,17.40
2022-09-13T18:16:29.517Z,17.40
2022-09-13T18:19:29.857Z,17.30
2022-09-13T18:22:28.467Z,17.30
2022-09-13T18:25:17.290Z,17.20
2022-09-13T18:28:05.904Z,17.20
2022-09-13T18:30:55.588Z,17.20
2022-09-13T18:33:44.942Z,17.10
2022-09-13T18:36:34.537Z,17.10
2022-09-13T18:39:25.067Z,17.10
2022-09-13T18:42:13.731Z,17.10
2022-09-13T18:45:02.477Z,17.10
2022-09-13T18:47:51.129Z,17.10
2022-09-13T18:50:43.634Z,17.10
2022-09-13T18:53:35.127Z,17.10
2022-09-13T18:56:26.272Z,17.10
2022-09-13T18:59:15.260Z,17.10
2022-09-13T19:02:04.045Z,17.10
2022-09-13T19:04:52.777Z,17.10
2022-09-13T19:07:41.941Z,17.10
2022-09-13T19:10:32.531Z,17.00
2022-09-13T19:13:23.803Z,17.00
2022-09-13T19:16:15.776Z,17.00
2022-09-13T19:19:04.576Z,17.00
2022-09-13T19:21:53.321Z,17.00
2022-09-13T19:24:41.977Z,17.00
2022-09-13T19:27:30.658Z,17.00
2022-09-13T19:30:20.781Z,17.00
2022-09-13T19:33:09.476Z,17.00
2022-09-13T19:36:01.749Z,17.00
2022-09-13T19:38:50.844Z,17.00
2022-09-13T19:41:40.726Z,17.10
2022-09-13T19:44:30.061Z,17.10
2022-09-13T19:50:29.161Z,17.10
2022-09-13T19:53:17.801Z,17.10
2022-09-13T19:56:07.282Z,17.10
2022-09-13T19:58:56.213Z,17.10
2022-09-13T20:01:46.129Z,17.10
2022-09-13T20:04:36.562Z,17.10
2022-09-13T20:07:25.586Z,17.10
2022-09-13T20:10:14.249Z,17.10
2022-09-13T20:13:02.941Z,17.10
2022-09-13T20:15:51.755Z,17.10
2022-09-13T20:18:40.778Z,17.10
2022-09-13T20:21:33.536Z,17.00
2022-09-13T20:24:22.235Z,17.00
2022-09-13T20:27:11.721Z,17.00
2022-09-13T20:30:07.871Z,17.00
2022-09-13T20:32:56.542Z,16.90
2022-09-13T20:35:45.240Z,16.90
2022-09-13T20:38:35.355Z,16.90
2022-09-13T20:41:24.781Z,16.80
2022-09-13T20:44:13.550Z,16.80
2022-09-13T20:47:02.362Z,16.80
2022-09-13T20:49:51.004Z,16.80
2022-09-13T20:53:04.944Z,16.70
2022-09-13T20:55:55.590Z,16.80
2022-09-13T20:58:46.329Z,16.70
2022-09-13T21:01:35.390Z,16.70
2022-09-13T21:04:24.540Z,16.70
2022-09-13T21:07:42.207Z,16.80
2022-09-13T21:10:32.210Z,16.70
2022-09-13T21:13:22.345Z,16.70
2022-09-13T21:16:12.442Z,16.70
2022-09-13T21:19:01.867Z,16.70
2022-09-13T21:21:50.647Z,16.80
2022-09-13T21:24:39.482Z,16.70
2022-09-13T21:27:28.333Z,16.80
2022-09-13T21:30:18.542Z,16.80
2022-09-13T21:33:07.235Z,16.80
2022-09-13T21:35:57.951Z,16.80
2022-09-13T21:38:46.654Z,16.70
2022-09-13T21:41:35.978Z,16.70
2022-09-13T21:44:24.615Z,16.70
2022-09-13T21:47:15.047Z,16.80
2022-09-13T21:50:13.134Z,16.80
2022-09-13T21:53:01.830Z,16.70
2022-09-13T21:55:51.784Z,16.70
2022-09-13T21:58:40.649Z,16.70
2022-09-13T22:01:31.136Z,16.70
2022-09-13T22:04:24.261Z,16.70
2022-09-13T22:07:12.935Z,16.70
2022-09-13T22:10:01.619Z,16.60
2022-09-13T22:12:50.342Z,16.60
2022-09-13T22:15:39.005Z,16.60
2022-09-13T22:18:27.663Z,16.60
2022-09-13T22:21:20.398Z,16.60
2022-09-13T22:24:10.368Z,16.60
2022-09-13T22:26:59.699Z,16.50
2022-09-13T22:29:48.342Z,16.50
2022-09-13T22:32:37.016Z,16.50
2022-09-13T22:35:25.709Z,16.50
2022-09-13T22:38:16.096Z,16.50
2022-09-13T22:41:06.734Z,16.50
2022-09-13T22:43:56.176Z,16.50
2022-09-13T22:46:46.149Z,16.50
2022-09-13T22:49:34.803Z,16.50
2022-09-13T22:52:23.467Z,16.50
2022-09-13T22:55:13.529Z,16.50
2022-09-13T22:58:02.212Z,16.50
2022-09-13T23:00:50.933Z,16.40
2022-09-13T23:03:41.760Z,16.40
2022-09-13T23:06:31.320Z,16.40
2022-09-13T23:09:20.358Z,16.40
2022-09-13T23:12:10.543Z,16.50
2022-09-13T23:14:59.216Z,16.40
2022-09-13T23:17:48.048Z,16.40
2022-09-13T23:20:36.939Z,16.40
2022-09-13T23:23:25.753Z,16.40
2022-09-13T23:26:17.719Z,16.40
2022-09-13T23:29:07.923Z,16.50
2022-09-13T23:31:56.626Z,16.50
2022-09-13T23:34:45.338Z,16.50
2022-09-13T23:37:34.044Z,16.50
2022-09-13T23:40:23.186Z,16.50
2022-09-13T23:43:11.948Z,16.40
2022-09-13T23:46:02.041Z,16.40
2022-09-13T23:48:51.222Z,16.40
2022-09-13T23:51:39.929Z,16.40
2022-09-13T23:54:28.599Z,16.50
2022-09-13T23:57:17.305Z,16.50
